KMGJ/MGJ METAR and TAF weather

Enter ICAO airport designator
Station Type Date Time Source
KMGJ METAR 2019/06/18 12:19 UTC NOAA

KMGJ 181219Z AUTO 00000KT 5SM RA BR SCT004 BKN023 OVC032 19/19 A2996 RMK AO2 P0002 T01940189


Station Type Date Time Source
KMGJ Decoded METAR 2019/06/18 12:19 UTC NOAA

MONTGOMERY ORANGE CO AIRPORT, NY, United States (KMGJ) 41-31N 074-16W 108M
Jun 18, 2019 - 08:19 AM EDT / 2019.06.18 1219 UTC
Wind: Calm:0
Visibility: 5 mile(s):0
Sky conditions: overcast
Weather: rain; mist
Precipitation last hour: 0.02 inches
Temperature: 66.9 F (19.4 C)
Dew Point: 66.0 F (18.9 C)
Relative Humidity: 96%
Pressure (altimeter): 29.96 in. Hg (1014 hPa)
ob: KMGJ 181219Z AUTO 00000KT 5SM RA BR SCT004 BKN023 OVC032 19/19 A2996 RMK AO2 P0002 T01940189
cycle: 12

Station Type Date Time Source
KMGJ TAF UTC NOAA

Error!

Example: see airport list